Time;durP1;ratioP1;P1;durP2;ratioP2;P2;SDS_P1;SDS_P2;PMS_P1;PMS_P2;Temp;Humidity;BMP_temperature;BMP_pressure;BME280_temperature;BME280_humidity;BME280_pressure;Samples;Min_cycle;Max_cycle;Signal;HPM_P1;HPM_P2
2021/10/04 00:01:22;;;;;;;1.27;0.80;;;16.20;85.50;;;;;;4991831;28;20030;-71
2021/10/04 00:03:47;;;;;;;2.70;0.82;;;16.10;85.60;;;;;;4992578;28;20038;-71
2021/10/04 00:06:13;;;;;;;1.40;0.70;;;16.10;86.00;;;;;;4992094;28;20180;-71
2021/10/04 00:08:39;;;;;;;1.27;0.60;;;16.10;86.10;;;;;;4991864;28;20357;-71
2021/10/04 00:11:04;;;;;;;2.05;0.80;;;16.10;86.30;;;;;;4991819;28;20432;-72
2021/10/04 00:13:31;;;;;;;1.95;1.00;;;16.10;86.40;;;;;;4991908;28;20050;-71
2021/10/04 00:15:58;;;;;;;1.63;0.73;;;16.10;86.70;;;;;;4991119;28;20384;-71
2021/10/04 00:18:24;;;;;;;2.13;0.70;;;16.10;86.70;;;;;;4991532;28;20042;-71
2021/10/04 00:20:50;;;;;;;2.47;0.95;;;16.10;86.80;;;;;;4991729;28;20027;-69
2021/10/04 00:23:16;;;;;;;2.78;0.80;;;16.00;87.00;;;;;;4990529;28;20105;-71
2021/10/04 00:25:41;;;;;;;1.88;0.70;;;16.10;87.30;;;;;;4991703;28;20552;-70
2021/10/04 00:28:07;;;;;;;4.45;0.75;;;16.10;87.30;;;;;;4991571;28;20536;-71
2021/10/04 00:30:33;;;;;;;1.92;0.88;;;16.10;87.20;;;;;;4991962;28;20048;-71
2021/10/04 00:32:58;;;;;;;2.15;0.70;;;16.10;87.20;;;;;;4991449;28;20081;-72
2021/10/04 00:35:25;;;;;;;1.17;0.73;;;16.00;87.20;;;;;;4991522;28;20045;-72
2021/10/04 00:37:52;;;;;;;3.23;0.87;;;16.00;87.30;;;;;;4991303;28;20125;-72
2021/10/04 00:40:26;;;;;;;2.25;0.80;;;16.10;87.30;;;;;;4991494;28;20419;-72
2021/10/04 00:42:52;;;;;;;3.22;1.30;;;16.00;87.40;;;;;;4992104;28;20034;-71
2021/10/04 00:45:18;;;;;;;2.92;0.80;;;16.00;87.70;;;;;;4991522;28;20112;-72
2021/10/04 00:47:44;;;;;;;2.60;0.80;;;15.90;88.00;;;;;;4991616;28;20042;-71
2021/10/04 00:50:11;;;;;;;1.00;0.68;;;15.90;88.30;;;;;;4994351;28;20535;-72
2021/10/04 00:52:37;;;;;;;2.75;1.08;;;15.90;88.40;;;;;;4993961;28;20114;-71
2021/10/04 00:55:05;;;;;;;2.75;0.90;;;15.80;88.70;;;;;;4995894;28;20117;-71
2021/10/04 00:57:32;;;;;;;2.08;0.80;;;15.90;88.80;;;;;;4995512;28;20121;-72
2021/10/04 00:59:57;;;;;;;2.97;0.50;;;15.80;89.00;;;;;;4995045;28;20504;-72
2021/10/04 01:02:23;;;;;;;2.03;0.88;;;15.70;89.20;;;;;;4995161;28;20096;-72
2021/10/04 01:04:49;;;;;;;2.95;0.70;;;15.70;89.40;;;;;;4994929;28;20053;-71
2021/10/04 01:07:14;;;;;;;1.38;0.70;;;15.70;89.50;;;;;;4994903;28;20027;-71
2021/10/04 01:09:40;;;;;;;0.98;0.70;;;15.70;89.50;;;;;;4994924;28;20023;-71
2021/10/04 01:12:07;;;;;;;2.28;0.40;;;15.70;89.40;;;;;;4994608;28;20053;-71
2021/10/04 01:14:33;;;;;;;2.88;0.93;;;15.70;89.40;;;;;;4994810;28;20089;-70
2021/10/04 01:16:58;;;;;;;1.20;0.50;;;15.80;89.20;;;;;;4993579;28;20069;-71
2021/10/04 01:19:24;;;;;;;2.42;0.80;;;15.80;89.20;;;;;;4987134;28;20034;-71
2021/10/04 01:21:50;;;;;;;2.90;0.82;;;15.80;89.20;;;;;;4975651;28;20338;-71
2021/10/04 01:24:16;;;;;;;4.72;0.93;;;15.70;89.00;;;;;;4975102;28;20500;-71
2021/10/04 01:26:43;;;;;;;2.03;0.90;;;15.80;89.20;;;;;;4975148;28;20421;-71
2021/10/04 01:29:09;;;;;;;2.42;0.82;;;15.80;89.10;;;;;;4975067;28;20117;-71
2021/10/04 01:31:35;;;;;;;2.42;0.80;;;15.80;89.10;;;;;;4975078;28;20110;-71
2021/10/04 01:34:00;;;;;;;0.90;0.60;;;15.70;89.10;;;;;;4975565;28;20031;-71
2021/10/04 01:36:27;;;;;;;4.85;0.70;;;15.80;89.00;;;;;;4987901;28;20027;-71
2021/10/04 01:38:54;;;;;;;2.28;0.70;;;15.80;89.30;;;;;;4994099;28;20082;-70
2021/10/04 01:41:20;;;;;;;2.90;0.90;;;15.80;89.10;;;;;;4994318;28;20377;-71
2021/10/04 01:43:46;;;;;;;6.03;0.70;;;15.70;89.70;;;;;;4993997;28;20527;-72
2021/10/04 01:46:11;;;;;;;4.38;0.80;;;15.60;89.60;;;;;;4992986;28;20034;-71
2021/10/04 01:48:37;;;;;;;2.15;0.73;;;15.60;89.60;;;;;;4993783;28;20499;-71
2021/10/04 01:51:03;;;;;;;2.65;0.73;;;15.70;89.70;;;;;;4994186;28;20042;-71
2021/10/04 01:53:28;;;;;;;2.55;0.80;;;15.70;89.60;;;;;;4994162;28;20412;-71
2021/10/04 01:55:54;;;;;;;3.38;0.88;;;15.70;89.70;;;;;;4994017;28;20038;-69
2021/10/04 01:58:20;;;;;;;2.58;0.90;;;15.70;89.90;;;;;;4993859;28;20350;-70
2021/10/04 02:00:46;;;;;;;1.10;0.52;;;15.70;90.00;;;;;;4993992;28;20026;-69
2021/10/04 02:03:11;;;;;;;3.30;0.77;;;15.60;90.00;;;;;;4993817;28;20034;-70
2021/10/04 02:05:37;;;;;;;1.30;0.60;;;15.60;90.00;;;;;;4993631;28;20058;-70
2021/10/04 02:08:03;;;;;;;1.52;0.65;;;15.60;90.00;;;;;;4993813;28;20085;-70
2021/10/04 02:10:32;;;;;;;0.75;0.50;;;15.60;90.10;;;;;;4992463;28;20047;-70
2021/10/04 02:12:59;;;;;;;1.80;0.65;;;15.60;90.00;;;;;;4993813;28;20026;-70
2021/10/04 02:15:26;;;;;;;3.70;0.85;;;15.60;90.10;;;;;;4993644;28;20113;-70
2021/10/04 02:17:52;;;;;;;3.53;0.90;;;15.60;90.20;;;;;;4993273;28;20050;-70
2021/10/04 02:20:21;;;;;;;2.92;0.68;;;15.50;90.20;;;;;;4992828;28;20140;-71
2021/10/04 02:22:47;;;;;;;0.85;0.68;;;15.50;90.30;;;;;;4993485;28;20042;-71
2021/10/04 02:25:13;;;;;;;1.67;0.93;;;15.50;90.40;;;;;;4993373;28;20030;-70
2021/10/04 02:27:40;;;;;;;0.93;0.60;;;15.50;90.50;;;;;;4994030;28;20069;-71
2021/10/04 02:30:10;;;;;;;2.67;1.58;;;15.40;90.50;;;;;;4992311;28;20423;-70
2021/10/04 02:32:35;;;;;;;3.20;0.68;;;15.40;90.50;;;;;;4993165;28;20553;-71
2021/10/04 02:35:01;;;;;;;1.40;0.60;;;15.40;90.50;;;;;;4992144;28;20117;-69
2021/10/04 02:37:27;;;;;;;2.25;0.82;;;15.30;90.60;;;;;;4993367;28;20077;-70
2021/10/04 02:39:52;;;;;;;3.28;0.60;;;15.30;90.60;;;;;;4993818;28;20092;-70
2021/10/04 02:42:18;;;;;;;1.63;0.73;;;15.30;90.60;;;;;;4993467;28;20070;-70
2021/10/04 02:44:44;;;;;;;2.10;0.80;;;15.20;90.70;;;;;;4993223;28;20058;-71
2021/10/04 02:47:09;;;;;;;1.08;0.73;;;15.20;90.80;;;;;;4993182;28;20043;-71
2021/10/04 02:49:35;;;;;;;1.63;0.50;;;15.20;90.80;;;;;;4991926;28;20030;-71
2021/10/04 02:52:00;;;;;;;1.33;0.70;;;15.20;90.80;;;;;;4993194;28;20022;-72
2021/10/04 02:54:26;;;;;;;1.20;0.70;;;15.20;90.80;;;;;;4993088;28;20026;-71
2021/10/04 02:56:51;;;;;;;1.25;0.55;;;15.20;90.80;;;;;;4992801;28;20109;-71
2021/10/04 02:59:17;;;;;;;1.15;0.70;;;15.20;90.80;;;;;;4992762;28;20124;-71
2021/10/04 03:01:43;;;;;;;4.20;0.80;;;15.30;90.80;;;;;;4992703;28;20041;-71
2021/10/04 03:04:09;;;;;;;2.70;0.55;;;15.20;90.80;;;;;;4992863;28;20096;-71
2021/10/04 03:06:35;;;;;;;2.08;0.60;;;15.20;90.80;;;;;;4991906;28;20125;-71
2021/10/04 03:09:01;;;;;;;0.88;0.50;;;15.30;90.80;;;;;;4991523;28;20106;-72
2021/10/04 03:11:26;;;;;;;1.85;0.88;;;15.20;90.70;;;;;;4991995;28;20049;-72
2021/10/04 03:13:52;;;;;;;2.50;0.70;;;15.20;90.80;;;;;;4992519;28;20050;-69
2021/10/04 03:16:18;;;;;;;1.67;0.68;;;15.20;90.80;;;;;;4992799;28;20095;-70
2021/10/04 03:18:43;;;;;;;1.83;0.70;;;15.20;90.90;;;;;;4992796;28;20338;-70
2021/10/04 03:21:09;;;;;;;3.13;0.82;;;15.30;90.90;;;;;;4992307;28;20121;-72
2021/10/04 03:23:34;;;;;;;3.40;1.10;;;15.30;90.90;;;;;;4992209;28;20046;-71
2021/10/04 03:26:00;;;;;;;4.35;0.80;;;15.30;90.80;;;;;;4992181;28;20026;-72
2021/10/04 03:28:25;;;;;;;1.42;0.63;;;15.20;90.80;;;;;;4992347;28;20431;-70
2021/10/04 03:30:51;;;;;;;3.92;0.90;;;15.10;90.80;;;;;;4992646;28;20503;-69
2021/10/04 03:33:17;;;;;;;2.80;0.70;;;15.20;90.80;;;;;;4992460;28;20483;-70
2021/10/04 03:35:43;;;;;;;2.33;0.77;;;15.20;90.80;;;;;;4992163;28;20040;-71
2021/10/04 03:38:08;;;;;;;2.25;0.63;;;15.20;90.80;;;;;;4991873;28;20042;-72
2021/10/04 03:40:34;;;;;;;1.98;0.70;;;15.10;90.90;;;;;;4992150;28;20424;-71
2021/10/04 03:42:59;;;;;;;0.50;0.47;;;15.10;90.90;;;;;;4992361;28;20030;-71
2021/10/04 03:45:25;;;;;;;2.10;0.57;;;15.20;91.00;;;;;;4992055;28;20042;-72
2021/10/04 03:47:51;;;;;;;3.80;0.75;;;15.10;91.00;;;;;;4992132;28;20037;-72
2021/10/04 03:50:17;;;;;;;3.28;0.73;;;15.10;90.90;;;;;;4992243;28;20033;-72
2021/10/04 03:52:43;;;;;;;2.47;0.70;;;15.20;90.90;;;;;;4992096;28;20416;-72
2021/10/04 03:55:10;;;;;;;3.50;0.73;;;15.20;90.90;;;;;;4991901;28;20456;-71
2021/10/04 03:57:37;;;;;;;2.42;0.70;;;15.10;90.90;;;;;;4991414;28;20080;-72
2021/10/04 04:00:10;;;;;;;1.50;0.70;;;15.10;90.80;;;;;;4991888;28;20037;-72
2021/10/04 04:02:35;;;;;;;4.38;0.73;;;15.10;90.90;;;;;;4991925;28;20123;-72
2021/10/04 04:05:01;;;;;;;1.75;0.65;;;15.10;90.90;;;;;;4991854;28;20119;-72
2021/10/04 04:07:27;;;;;;;1.63;0.75;;;15.20;90.90;;;;;;4990570;28;20030;-72
2021/10/04 04:09:52;;;;;;;1.83;0.90;;;15.20;90.80;;;;;;4992005;28;20038;-72
2021/10/04 04:12:18;;;;;;;1.73;0.70;;;15.20;90.80;;;;;;4991470;28;20049;-71
2021/10/04 04:14:43;;;;;;;2.38;0.80;;;15.20;90.80;;;;;;4991488;28;20030;-71
2021/10/04 04:17:09;;;;;;;1.05;0.60;;;15.20;91.00;;;;;;4990796;28;20030;-71
2021/10/04 04:19:34;;;;;;;7.72;0.88;;;15.20;90.90;;;;;;4990809;28;20057;-72
2021/10/04 04:22:00;;;;;;;1.10;0.73;;;15.20;90.90;;;;;;4991917;28;20050;-71
2021/10/04 04:24:25;;;;;;;2.65;0.75;;;15.10;90.90;;;;;;4993591;28;20069;-71
2021/10/04 04:26:53;;;;;;;2.60;0.90;;;15.20;90.90;;;;;;4995784;28;20364;-70
2021/10/04 04:29:18;;;;;;;6.87;0.90;;;15.10;90.90;;;;;;4995745;28;20027;-70
2021/10/04 04:31:45;;;;;;;2.92;0.90;;;15.10;90.80;;;;;;4995499;28;20267;-71
2021/10/04 04:34:11;;;;;;;3.78;0.70;;;15.10;90.80;;;;;;4994379;28;20120;-71
2021/10/04 04:36:38;;;;;;;1.50;0.70;;;15.10;91.00;;;;;;4995846;28;20512;-69
2021/10/04 04:39:04;;;;;;;7.65;1.42;;;15.10;90.90;;;;;;4995266;28;20038;-70
2021/10/04 04:41:30;;;;;;;1.73;0.73;;;15.20;90.90;;;;;;4995263;28;20031;-69
2021/10/04 04:43:55;;;;;;;3.60;0.70;;;15.10;90.70;;;;;;4995324;28;20045;-69
2021/10/04 04:46:21;;;;;;;4.05;0.80;;;15.20;90.80;;;;;;4995109;28;20034;-69
2021/10/04 04:48:46;;;;;;;4.75;0.75;;;15.10;90.70;;;;;;4996102;28;20022;-69
2021/10/04 04:51:12;;;;;;;2.38;1.00;;;15.20;90.80;;;;;;4995214;28;20044;-70
2021/10/04 04:53:38;;;;;;;5.68;0.98;;;15.10;90.60;;;;;;4995244;28;20042;-70
2021/10/04 04:56:04;;;;;;;1.85;0.82;;;15.20;90.70;;;;;;4995055;28;20026;-70
2021/10/04 04:58:29;;;;;;;3.58;0.85;;;15.20;90.60;;;;;;4994927;28;20062;-71
2021/10/04 05:00:55;;;;;;;2.38;0.80;;;15.10;90.60;;;;;;4995177;28;20061;-71
2021/10/04 05:03:20;;;;;;;3.50;0.90;;;15.10;90.50;;;;;;4994927;28;20034;-72
2021/10/04 05:05:46;;;;;;;3.20;0.80;;;15.10;90.60;;;;;;4995012;28;20042;-71
2021/10/04 05:08:11;;;;;;;1.10;0.80;;;15.20;90.60;;;;;;4994668;28;20061;-70
2021/10/04 05:10:37;;;;;;;4.88;0.85;;;15.20;90.50;;;;;;4993305;28;20262;-69
2021/10/04 05:13:02;;;;;;;6.88;1.10;;;15.10;90.50;;;;;;4995045;28;20113;-70
2021/10/04 05:15:30;;;;;;;3.60;0.90;;;15.20;90.50;;;;;;4995089;28;20400;-69
2021/10/04 05:17:56;;;;;;;2.97;0.75;;;15.20;90.50;;;;;;4994325;28;20068;-69
2021/10/04 05:20:22;;;;;;;1.85;0.80;;;15.20;90.50;;;;;;4994393;28;20033;-69
2021/10/04 05:22:47;;;;;;;3.03;0.82;;;15.30;90.60;;;;;;4993688;28;20039;-70
2021/10/04 05:25:13;;;;;;;2.63;0.80;;;15.20;90.40;;;;;;4994381;28;20053;-69
2021/10/04 05:27:39;;;;;;;5.95;0.70;;;15.20;90.40;;;;;;4994535;28;20030;-70
2021/10/04 05:30:05;;;;;;;3.13;0.93;;;15.20;90.30;;;;;;4994294;28;20069;-69
2021/10/04 05:32:31;;;;;;;3.85;1.00;;;15.20;90.60;;;;;;4994101;28;20027;-71
2021/10/04 05:34:57;;;;;;;2.63;0.60;;;15.10;90.60;;;;;;4993385;28;20613;-71
2021/10/04 05:37:23;;;;;;;6.13;1.13;;;15.20;90.40;;;;;;4993976;28;20073;-71
2021/10/04 05:39:49;;;;;;;3.70;0.68;;;15.20;90.30;;;;;;4994321;28;20058;-71
2021/10/04 05:42:14;;;;;;;3.53;1.00;;;15.10;90.30;;;;;;4993737;28;20448;-71
2021/10/04 05:44:40;;;;;;;2.33;1.13;;;15.10;90.30;;;;;;4992864;28;20121;-71
2021/10/04 05:47:07;;;;;;;1.38;0.75;;;15.10;90.20;;;;;;4993645;28;20044;-70
2021/10/04 05:49:33;;;;;;;4.35;0.90;;;15.00;90.20;;;;;;4992490;28;20157;-70
2021/10/04 05:51:59;;;;;;;2.60;0.65;;;15.20;90.30;;;;;;4993955;28;20026;-71
2021/10/04 05:54:25;;;;;;;3.35;0.80;;;15.10;90.30;;;;;;4985672;28;20424;-70
2021/10/04 05:56:50;;;;;;;2.40;0.68;;;15.10;90.40;;;;;;4973911;28;20105;-70
2021/10/04 05:59:16;;;;;;;6.72;0.73;;;15.10;90.30;;;;;;4972862;28;20043;-71
2021/10/04 06:01:42;;;;;;;7.07;0.88;;;15.10;90.20;;;;;;4974064;28;20039;-70
2021/10/04 06:04:07;;;;;;;6.72;0.85;;;15.20;90.20;;;;;;4973701;28;20038;-71
2021/10/04 06:06:33;;;;;;;4.95;0.90;;;15.10;90.30;;;;;;4974543;28;20141;-71
2021/10/04 06:08:59;;;;;;;4.97;0.68;;;15.20;90.30;;;;;;4973624;28;20393;-72
2021/10/04 06:11:24;;;;;;;3.53;0.68;;;15.30;90.80;;;;;;4973567;28;20135;-71
2021/10/04 06:13:51;;;;;;;3.28;0.70;;;15.30;90.90;;;;;;4972587;28;20086;-73
2021/10/04 06:16:16;;;;;;;2.83;0.70;;;15.40;90.70;;;;;;4974095;28;20424;-73
2021/10/04 06:18:42;;;;;;;1.88;0.75;;;15.40;90.30;;;;;;4973810;28;20067;-72
2021/10/04 06:21:07;;;;;;;7.65;0.75;;;15.40;90.40;;;;;;4973730;28;20045;-72
2021/10/04 06:23:34;;;;;;;2.85;0.80;;;15.40;90.40;;;;;;4974072;28;20070;-71
2021/10/04 06:26:00;;;;;;;2.65;0.50;;;15.40;90.50;;;;;;4972401;28;20035;-72
2021/10/04 06:28:26;;;;;;;5.07;0.95;;;15.30;90.50;;;;;;4973565;28;20045;-72
2021/10/04 06:30:51;;;;;;;2.47;0.55;;;15.30;90.60;;;;;;4974164;28;20096;-71
2021/10/04 06:33:17;;;;;;;2.17;0.65;;;15.30;90.90;;;;;;4973482;28;20038;-72
2021/10/04 06:35:42;;;;;;;5.70;0.82;;;15.30;90.60;;;;;;4973234;28;20060;-72
2021/10/04 06:38:08;;;;;;;1.77;0.95;;;15.30;90.60;;;;;;4973198;28;20420;-68
2021/10/04 06:40:34;;;;;;;2.35;0.75;;;15.30;90.70;;;;;;4973410;28;20047;-73
2021/10/04 06:42:59;;;;;;;3.33;0.80;;;15.30;90.70;;;;;;4973643;28;20019;-70
2021/10/04 06:45:25;;;;;;;14.07;5.88;;;15.30;90.70;;;;;;4971946;28;20062;-74
2021/10/04 06:47:51;;;;;;;16.05;3.25;;;15.30;90.70;;;;;;4971174;28;20035;-74
2021/10/04 06:50:16;;;;;;;5.50;2.38;;;15.20;91.00;;;;;;4972056;28;20122;-74
2021/10/04 06:52:42;;;;;;;8.27;1.35;;;15.20;91.10;;;;;;4972847;28;20049;-74
2021/10/04 06:55:09;;;;;;;2.42;0.70;;;15.20;91.10;;;;;;4972989;28;20031;-74
2021/10/04 06:57:37;;;;;;;8.05;2.67;;;15.20;90.90;;;;;;4973153;28;20121;-73
2021/10/04 07:00:11;;;;;;;9.25;2.63;;;15.30;90.90;;;;;;4972717;28;20035;-73
2021/10/04 07:02:37;;;;;;;1.63;0.70;;;15.30;91.20;;;;;;4972644;28;20433;-73
2021/10/04 07:05:04;;;;;;;2.17;1.00;;;15.20;90.80;;;;;;4972892;28;20417;-71
2021/10/04 07:07:29;;;;;;;4.78;0.73;;;15.30;90.90;;;;;;4972762;28;20038;-73
2021/10/04 07:09:55;;;;;;;5.45;0.85;;;15.30;91.10;;;;;;4972958;28;20106;-73
2021/10/04 07:12:21;;;;;;;5.53;0.77;;;15.40;91.00;;;;;;4972618;28;20492;-71
2021/10/04 07:14:47;;;;;;;12.75;0.80;;;15.30;90.90;;;;;;4972306;28;20089;-73
2021/10/04 07:17:13;;;;;;;2.25;0.80;;;15.30;90.80;;;;;;4972614;28;20031;-72
2021/10/04 07:19:38;;;;;;;10.60;0.85;;;15.40;90.80;;;;;;4972465;28;20366;-73
2021/10/04 07:22:04;;;;;;;4.30;2.35;;;15.30;90.70;;;;;;4972768;28;20034;-72
2021/10/04 07:24:29;;;;;;;6.65;2.45;;;15.30;90.60;;;;;;4972292;28;20073;-72
2021/10/04 07:26:55;;;;;;;3.58;1.40;;;15.20;90.70;;;;;;4972725;28;20465;-74
2021/10/04 07:29:21;;;;;;;4.32;1.30;;;15.20;90.70;;;;;;4972323;28;20118;-74
2021/10/04 07:31:48;;;;;;;2.90;0.50;;;15.30;90.80;;;;;;4972455;28;20113;-72
2021/10/04 07:34:13;;;;;;;0.80;0.52;;;15.30;90.90;;;;;;4972020;28;20027;-73
2021/10/04 07:36:39;;;;;;;2.25;0.70;;;15.30;90.80;;;;;;4972580;28;20054;-74
2021/10/04 07:39:07;;;;;;;3.38;0.93;;;15.40;90.90;;;;;;4972187;28;20030;-72
2021/10/04 07:41:33;;;;;;;1.30;0.50;;;15.50;90.90;;;;;;4971975;28;20098;-74
2021/10/04 07:43:59;;;;;;;2.17;0.82;;;15.40;90.80;;;;;;4971144;28;20043;-75
2021/10/04 07:46:25;;;;;;;7.13;0.77;;;15.40;90.80;;;;;;4972059;28;20026;-74
2021/10/04 07:48:51;;;;;;;4.60;0.70;;;15.50;90.90;;;;;;4971209;28;20031;-74
2021/10/04 07:51:17;;;;;;;1.00;0.50;;;15.50;90.70;;;;;;4972060;28;20368;-74
2021/10/04 07:53:43;;;;;;;4.53;0.95;;;15.60;90.80;;;;;;4972106;28;20225;-74
2021/10/04 07:56:09;;;;;;;3.70;0.70;;;15.60;90.80;;;;;;4972008;28;20381;-73
2021/10/04 07:58:35;;;;;;;5.50;0.70;;;15.70;90.60;;;;;;4971741;28;20042;-73
2021/10/04 08:01:01;;;;;;;9.50;1.00;;;15.70;90.50;;;;;;4972328;28;20038;-74
2021/10/04 08:03:26;;;;;;;1.13;0.73;;;15.70;90.30;;;;;;4972001;28;20035;-73
2021/10/04 08:05:52;;;;;;;1.83;0.70;;;15.80;90.30;;;;;;4971863;28;20506;-71
2021/10/04 08:08:18;;;;;;;3.33;0.77;;;15.70;90.60;;;;;;4971717;28;20092;-71
2021/10/04 08:10:43;;;;;;;1.85;0.73;;;15.70;90.60;;;;;;4971658;28;20370;-71
2021/10/04 08:13:10;;;;;;;3.58;0.82;;;15.80;90.70;;;;;;4971802;28;20023;-71
2021/10/04 08:15:38;;;;;;;3.25;0.80;;;15.90;90.30;;;;;;4972766;28;20034;-71
2021/10/04 08:18:03;;;;;;;4.90;0.70;;;16.00;90.10;;;;;;4971773;28;20101;-71
2021/10/04 08:20:29;;;;;;;2.55;0.80;;;16.00;90.00;;;;;;4971068;28;20042;-71
2021/10/04 08:22:55;;;;;;;5.53;0.80;;;16.00;89.80;;;;;;4971669;28;20054;-71
2021/10/04 08:25:21;;;;;;;3.80;1.45;;;16.00;89.40;;;;;;4970648;28;20027;-71
2021/10/04 08:27:47;;;;;;;3.60;1.13;;;16.00;89.30;;;;;;4972183;28;20469;-70
2021/10/04 08:30:12;;;;;;;2.22;0.85;;;16.00;89.30;;;;;;4971456;28;20042;-73
2021/10/04 08:32:39;;;;;;;3.28;0.65;;;15.90;89.00;;;;;;4971619;28;20038;-71
2021/10/04 08:35:05;;;;;;;3.10;0.50;;;15.90;89.00;;;;;;4971737;28;20464;-71
2021/10/04 08:37:34;;;;;;;3.72;0.80;;;15.90;89.30;;;;;;4971617;28;20058;-72
2021/10/04 08:40:02;;;;;;;5.07;1.13;;;16.00;89.30;;;;;;4972107;28;20023;-71
2021/10/04 08:42:28;;;;;;;;;;;16.00;89.50;;;;;;4972222;28;20055;-72
2021/10/04 08:44:54;;;;;;;2.53;0.82;;;16.00;89.70;;;;;;4971590;28;20395;-71
2021/10/04 08:47:22;;;;;;;2.10;0.63;;;16.00;89.70;;;;;;4971544;28;20035;-72
2021/10/04 08:49:48;;;;;;;2.03;0.68;;;16.10;89.50;;;;;;4971780;28;20094;-74
2021/10/04 08:52:14;;;;;;;4.30;0.77;;;16.20;90.10;;;;;;4971253;28;20029;-71
2021/10/04 08:54:43;;;;;;;1.90;0.50;;;16.20;89.50;;;;;;4971739;28;20117;-72
2021/10/04 08:57:10;;;;;;;3.30;0.50;;;16.20;89.60;;;;;;4971623;28;20492;-72
2021/10/04 08:59:35;;;;;;;5.10;0.73;;;16.10;89.40;;;;;;4971049;28;20097;-72
2021/10/04 09:02:28;;;;;;;11.45;4.97;;;16.20;89.50;;;;;;4971277;28;20043;-72
2021/10/04 09:05:11;;;;;;;2.85;1.55;;;16.20;89.70;;;;;;4971331;28;20103;-72
2021/10/04 09:07:37;;;;;;;4.78;0.70;;;16.10;89.50;;;;;;4970042;28;20030;-73
2021/10/04 09:10:04;;;;;;;3.80;0.65;;;16.10;89.30;;;;;;4971687;28;20035;-73
2021/10/04 09:12:43;;;;;;;3.75;0.68;;;16.10;89.30;;;;;;4974826;28;20113;-73
2021/10/04 09:15:29;;;;;;;4.10;0.77;;;16.20;89.60;;;;;;4973787;28;20062;-73
2021/10/04 09:18:15;;;;;;;4.25;0.80;;;16.20;89.60;;;;;;4973503;28;20481;-74
2021/10/04 09:20:55;;;;;;;5.10;1.15;;;16.10;89.60;;;;;;4973021;28;20641;-72
2021/10/04 09:23:33;;;;;;;3.15;0.63;;;16.10;89.60;;;;;;4974819;28;20059;-71
2021/10/04 09:26:00;;;;;;;;;;;16.10;89.50;;;;;;4973855;28;20231;-73
2021/10/04 09:28:31;;;;;;;4.20;1.33;;;16.10;89.80;;;;;;4974525;28;19964;-73
2021/10/04 09:31:19;;;;;;;2.95;0.63;;;16.10;89.90;;;;;;4975080;28;20019;-73
2021/10/04 09:34:06;;;;;;;8.43;0.90;;;16.20;89.90;;;;;;4973561;28;20169;-73
2021/10/04 09:36:38;;;;;;;2.20;0.63;;;16.20;89.90;;;;;;4974576;28;20039;-73
2021/10/04 09:39:18;;;;;;;5.03;1.73;;;16.20;89.90;;;;;;4974343;28;20557;-69
2021/10/04 09:42:11;;;;;;;2.80;1.70;;;16.20;89.80;;;;;;4974039;28;20461;-71
2021/10/04 09:44:42;;;;;;;3.17;1.35;;;16.30;90.00;;;;;;4974554;28;20023;-70
2021/10/04 09:47:31;;;;;;;12.45;4.68;;;16.30;90.00;;;;;;4974507;28;20026;-71
2021/10/04 09:50:07;;;;;;;4.13;1.05;;;16.40;90.10;;;;;;4972993;28;20054;-70
2021/10/04 09:52:49;;;;;;;1.40;0.65;;;16.50;90.00;;;;;;4974115;28;20031;-70
2021/10/04 09:55:32;;;;;;;1.20;0.73;;;16.50;90.00;;;;;;4974088;28;20110;-73
2021/10/04 09:58:08;;;;;;;3.83;1.00;;;16.50;89.70;;;;;;4974427;28;20034;-74
2021/10/04 10:01:02;;;;;;;3.97;0.63;;;16.60;90.00;;;;;;4974161;28;20492;-73
2021/10/04 10:03:35;;;;;;;2.50;0.80;;;16.60;90.00;;;;;;4972998;28;20031;-73
2021/10/04 10:06:00;;;;;;;2.38;0.63;;;16.60;89.50;;;;;;4972845;28;20026;-71
2021/10/04 10:08:28;;;;;;;2.65;0.50;;;16.60;89.70;;;;;;4973653;28;20049;-72
2021/10/04 10:10:57;;;;;;;5.88;0.82;;;16.70;89.90;;;;;;4973679;28;20133;-73
2021/10/04 10:13:25;;;;;;;3.65;0.70;;;16.70;89.70;;;;;;4973651;28;20041;-73
2021/10/04 10:16:04;;;;;;;7.72;3.53;;;16.70;89.50;;;;;;4974613;28;20450;-74
2021/10/04 10:18:52;;;;;;;3.38;1.15;;;16.70;89.50;;;;;;4973681;28;20046;-71
2021/10/04 10:21:28;;;;;;;7.65;1.00;;;16.80;89.50;;;;;;4973491;28;20035;-71
2021/10/04 10:23:59;;;;;;;3.38;0.52;;;16.90;89.40;;;;;;4973704;28;20035;-69
2021/10/04 10:26:34;;;;;;;4.15;0.65;;;17.10;89.40;;;;;;4973553;28;20065;-71
2021/10/04 10:29:09;;;;;;;2.92;0.73;;;17.10;88.90;;;;;;4973772;28;20122;-72
2021/10/04 10:31:50;;;;;;;5.68;0.80;;;17.10;88.80;;;;;;4973353;28;20027;-71
2021/10/04 10:34:31;;;;;;;2.42;0.55;;;17.20;88.40;;;;;;4972168;28;20037;-70
2021/10/04 10:37:10;;;;;;;3.35;0.65;;;17.10;88.10;;;;;;4973574;28;20414;-70
2021/10/04 10:39:38;;;;;;;3.97;0.90;;;17.10;87.90;;;;;;4972253;28;20138;-71
2021/10/04 10:42:18;;;;;;;3.55;0.60;;;17.30;88.40;;;;;;4973049;28;20027;-71
2021/10/04 10:44:56;;;;;;;2.58;0.65;;;17.30;88.30;;;;;;4971960;28;20130;-68
2021/10/04 10:47:34;;;;;;;3.38;0.73;;;17.20;87.70;;;;;;4972854;28;20026;-69
2021/10/04 10:50:14;;;;;;;2.40;1.00;;;17.10;87.90;;;;;;4972857;28;20031;-69
2021/10/04 10:52:54;;;;;;;10.32;3.35;;;17.00;88.20;;;;;;4972991;28;20109;-73
2021/10/04 10:55:20;;;;;;;3.42;0.93;;;16.90;88.20;;;;;;4971967;28;20323;-69
2021/10/04 10:57:51;;;;;;;1.58;0.88;;;17.00;88.20;;;;;;4973346;28;20046;-69
2021/10/04 11:00:44;;;;;;;8.07;1.13;;;16.90;88.00;;;;;;4972892;28;20409;-70
2021/10/04 11:03:15;;;;;;;1.38;0.50;;;17.00;88.20;;;;;;4964500;28;20023;-68
2021/10/04 11:05:43;;;;;;;5.22;0.50;;;16.90;88.40;;;;;;4972865;28;20121;-72
2021/10/04 11:08:09;;;;;;;;;;;16.90;88.40;;;;;;4973521;28;20045;-72
2021/10/04 11:10:56;;;;;;;3.03;0.60;;;17.00;88.80;;;;;;4972885;28;20316;-78
2021/10/04 11:13:25;;;;;;;1.95;0.88;;;17.00;88.50;;;;;;4968909;28;20039;-71
2021/10/04 11:15:53;;;;;;;3.30;0.70;;;17.00;88.50;;;;;;4971821;28;20041;-72
2021/10/04 11:18:21;;;;;;;5.55;1.25;;;17.00;88.60;;;;;;4971771;28;20085;-71
2021/10/04 11:20:47;;;;;;;2.88;0.80;;;17.10;88.70;;;;;;4972684;28;20038;-71
2021/10/04 11:23:18;;;;;;;5.70;2.03;;;17.10;89.10;;;;;;4972582;28;20062;-70
2021/10/04 11:25:45;;;;;;;2.60;1.42;;;17.10;89.30;;;;;;4971525;28;20058;-69
2021/10/04 11:28:14;;;;;;;2.28;0.85;;;17.30;88.80;;;;;;4972647;28;20037;-72
2021/10/04 11:30:57;;;;;;;2.08;0.50;;;17.40;88.40;;;;;;4972890;28;20023;-71
2021/10/04 11:33:25;;;;;;;4.53;0.43;;;17.40;88.00;;;;;;4972163;28;20509;-69
2021/10/04 11:36:05;;;;;;;12.52;0.70;;;17.40;88.20;;;;;;4971245;28;20031;-70
2021/10/04 11:38:49;;;;;;;6.15;0.80;;;17.30;88.00;;;;;;4972363;28;20041;-70
2021/10/04 11:41:34;;;;;;;2.00;0.40;;;17.30;88.50;;;;;;4972203;28;20133;-70
2021/10/04 11:44:05;;;;;;;1.95;0.60;;;17.20;88.30;;;;;;4972233;28;20027;-73
2021/10/04 11:46:34;;;;;;;2.08;0.63;;;17.20;88.30;;;;;;4971045;28;20030;-72
2021/10/04 11:49:06;;;;;;;3.60;0.93;;;17.20;88.00;;;;;;4972496;28;20094;-72
2021/10/04 11:51:34;;;;;;;3.20;0.82;;;17.20;87.80;;;;;;4971404;28;20073;-71
2021/10/04 11:54:00;;;;;;;;;;;17.20;87.70;;;;;;4972865;28;20035;-73
2021/10/04 11:56:25;;;;;;;3.17;0.80;;;17.20;88.00;;;;;;4972159;28;19982;-72
2021/10/04 11:58:57;;;;;;;3.35;0.93;;;17.30;87.70;;;;;;4970864;28;20035;-73
2021/10/04 12:01:30;;;;;;;3.42;0.70;;;17.30;87.90;;;;;;4971005;28;20030;-72
2021/10/04 12:04:03;;;;;;;3.35;0.77;;;17.30;87.90;;;;;;4972278;28;20027;-73
2021/10/04 12:06:31;;;;;;;10.70;0.90;;;17.30;87.60;;;;;;4971834;28;20094;-74
2021/10/04 12:08:58;;;;;;;1.50;0.93;;;17.40;87.30;;;;;;4972016;28;20023;-72
2021/10/04 12:11:24;;;;;;;1.50;0.50;;;17.40;87.20;;;;;;4971904;28;20481;-73
2021/10/04 12:13:50;;;;;;;5.40;0.70;;;17.50;87.10;;;;;;4971663;28;20035;-72
2021/10/04 12:16:17;;;;;;;3.22;0.50;;;17.50;86.90;;;;;;4971691;28;20457;-73
2021/10/04 12:18:52;;;;;;;1.53;0.67;;;17.60;87.30;;;;;;4972281;28;20031;-72
2021/10/04 12:21:25;;;;;;;4.32;0.52;;;17.60;86.70;;;;;;4972230;28;20062;-70
2021/10/04 12:24:07;;;;;;;2.08;0.50;;;17.70;87.00;;;;;;4971953;28;20039;-72
2021/10/04 12:26:44;;;;;;;3.50;0.77;;;17.70;86.60;;;;;;4971982;28;20030;-72
2021/10/04 12:29:10;;;;;;;5.07;0.83;;;17.80;87.00;;;;;;4971931;28;20450;-71
2021/10/04 12:31:37;;;;;;;4.72;0.80;;;17.90;87.00;;;;;;4971832;28;20308;-70
2021/10/04 12:34:26;;;;;;;3.22;0.82;;;17.90;86.60;;;;;;4972240;28;20034;-71
2021/10/04 12:36:54;;;;;;;3.00;0.45;;;17.90;86.60;;;;;;4971628;28;20365;-71
2021/10/04 12:39:20;;;;;;;3.80;0.73;;;17.90;86.50;;;;;;4971636;28;20034;-71
2021/10/04 12:41:56;;;;;;;2.33;0.55;;;18.00;86.50;;;;;;4970514;28;20027;-70
2021/10/04 12:44:22;;;;;;;2.65;0.60;;;18.00;86.30;;;;;;4970621;28;20094;-71
2021/10/04 12:47:10;;;;;;;2.35;0.70;;;18.00;86.60;;;;;;4975634;28;20050;-71
2021/10/04 12:49:36;;;;;;;3.00;0.95;;;18.00;86.30;;;;;;4975291;28;20037;-71
2021/10/04 12:52:04;;;;;;;5.15;0.73;;;18.00;86.20;;;;;;4974748;28;20031;-71
2021/10/04 12:54:32;;;;;;;3.40;0.55;;;17.90;86.20;;;;;;4975448;28;20031;-70